createdAt,value
2019-02-26T00:01:16.436Z,10.87
2019-02-26T00:03:42.398Z,10.20
2019-02-26T00:06:09.111Z,10.77
2019-02-26T00:08:35.807Z,10.20
2019-02-26T00:11:03.737Z,11.30
2019-02-26T00:13:31.985Z,11.30
2019-02-26T00:16:03.132Z,11.57
2019-02-26T00:18:28.419Z,10.80
2019-02-26T00:20:56.823Z,10.67
2019-02-26T00:23:25.584Z,11.43
2019-02-26T00:25:52.352Z,10.27
2019-02-26T00:28:19.839Z,10.23
2019-02-26T00:30:47.671Z,11.30
2019-02-26T00:33:14.387Z,11.63
2019-02-26T00:35:41.701Z,11.80
2019-02-26T00:38:11.631Z,12.20
2019-02-26T00:40:39.281Z,12.37
2019-02-26T00:43:07.018Z,12.00
2019-02-26T00:45:34.559Z,11.77
2019-02-26T00:48:02.528Z,12.20
2019-02-26T00:50:30.399Z,12.23
2019-02-26T00:52:59.423Z,12.10
2019-02-26T00:55:29.327Z,11.80
2019-02-26T00:57:57.052Z,11.97
2019-02-26T01:00:26.302Z,12.20
2019-02-26T01:02:52.928Z,12.18
2019-02-26T01:05:19.839Z,12.23
2019-02-26T01:07:48.883Z,11.93
2019-02-26T01:10:16.442Z,11.67
2019-02-26T01:12:44.163Z,10.97
2019-02-26T01:15:12.166Z,11.10
2019-02-26T01:17:41.727Z,10.90
2019-02-26T01:20:11.298Z,11.38
2019-02-26T01:22:40.162Z,11.45
2019-02-26T01:25:06.828Z,11.63
2019-02-26T01:27:33.528Z,11.70
2019-02-26T01:30:00.395Z,10.50
2019-02-26T01:32:28.847Z,10.40
2019-02-26T01:34:55.560Z,11.15
2019-02-26T01:37:22.381Z,11.50
2019-02-26T01:39:50.060Z,12.15
2019-02-26T01:42:21.611Z,11.78
2019-02-26T01:44:46.353Z,11.88
2019-02-26T01:47:13.051Z,13.30
2019-02-26T01:49:40.220Z,12.98
2019-02-26T01:52:10.244Z,11.90
2019-02-26T01:54:37.349Z,12.98
2019-02-26T01:57:08.607Z,13.60
2019-02-26T01:59:34.663Z,12.65
2019-02-26T02:02:01.528Z,12.80
2019-02-26T02:04:28.239Z,12.68
2019-02-26T02:06:56.714Z,13.22
2019-02-26T02:09:25.090Z,13.30
2019-02-26T02:11:52.079Z,13.05
2019-02-26T02:14:18.795Z,13.58
2019-02-26T02:16:45.503Z,14.00
2019-02-26T02:19:15.451Z,13.83
2019-02-26T02:21:40.844Z,13.10
2019-02-26T02:24:10.607Z,13.35
2019-02-26T02:26:36.163Z,13.40
2019-02-26T02:29:03.169Z,12.60
2019-02-26T02:31:31.182Z,13.53
2019-02-26T02:33:58.492Z,13.30
2019-02-26T02:36:26.428Z,12.93
2019-02-26T02:38:53.424Z,12.93
2019-02-26T02:41:20.139Z,13.32
2019-02-26T02:43:46.840Z,13.50
2019-02-26T02:46:13.549Z,13.18
2019-02-26T02:48:40.257Z,12.30
2019-02-26T02:51:08.446Z,14.15
2019-02-26T02:53:35.564Z,13.70
2019-02-26T02:56:03.729Z,13.20
2019-02-26T02:58:30.876Z,13.15
2019-02-26T03:01:00.206Z,11.18
2019-02-26T03:03:26.179Z,11.80
2019-02-26T03:05:52.931Z,11.60
2019-02-26T03:08:22.331Z,12.47
2019-02-26T03:10:48.332Z,13.70
2019-02-26T03:13:16.833Z,13.25
2019-02-26T03:15:43.640Z,13.20
2019-02-26T03:18:12.489Z,11.88
2019-02-26T03:20:40.298Z,14.45
2019-02-26T03:23:09.322Z,14.33
2019-02-26T03:25:35.876Z,12.78
2019-02-26T03:28:02.683Z,13.40
2019-02-26T03:30:34.050Z,13.48
2019-02-26T03:33:04.133Z,13.55
2019-02-26T03:35:27.542Z,13.98
2019-02-26T03:37:57.742Z,13.85
2019-02-26T03:40:23.995Z,13.60
2019-02-26T03:42:51.668Z,13.08
2019-02-26T03:45:23.901Z,13.83
2019-02-26T03:47:47.068Z,13.28
2019-02-26T03:50:13.984Z,13.78
2019-02-26T03:52:41.029Z,13.13
2019-02-26T03:55:09.482Z,13.50
2019-02-26T03:57:41.113Z,13.88
2019-02-26T04:00:08.571Z,13.60
2019-02-26T04:02:36.769Z,13.35
2019-02-26T04:05:08.858Z,13.48
2019-02-26T04:07:36.072Z,13.50
2019-02-26T04:10:03.513Z,13.93
2019-02-26T04:12:30.236Z,13.45
2019-02-26T04:14:56.928Z,13.05
2019-02-26T04:17:27.966Z,15.28
2019-02-26T04:19:52.245Z,13.20
2019-02-26T04:22:26.583Z,14.58
2019-02-26T04:25:00.653Z,14.40
2019-02-26T04:27:47.326Z,14.58
2019-02-26T04:31:02.936Z,14.07
2019-02-26T04:33:46.371Z,14.47
2019-02-26T04:37:07.290Z,12.03
2019-02-26T04:39:54.976Z,14.73
2019-02-26T04:42:32.514Z,14.87
2019-02-26T04:45:28.644Z,14.58
2019-02-26T04:47:58.311Z,15.60
2019-02-26T04:50:28.754Z,14.98
2019-02-26T04:52:52.906Z,15.63
2019-02-26T04:55:19.615Z,15.40
2019-02-26T04:57:48.536Z,15.53
2019-02-26T05:00:15.043Z,14.75
2019-02-26T05:02:41.736Z,14.60
2019-02-26T05:05:08.576Z,14.95
2019-02-26T05:07:36.114Z,15.32
2019-02-26T05:10:04.299Z,15.18
2019-02-26T05:12:33.977Z,15.10
2019-02-26T05:14:59.702Z,14.95
2019-02-26T05:17:28.085Z,13.85
2019-02-26T05:19:55.012Z,15.03
2019-02-26T05:22:22.836Z,15.53
2019-02-26T05:24:52.536Z,14.85
2019-02-26T05:27:22.029Z,15.13
2019-02-26T05:29:49.152Z,15.85
2019-02-26T05:32:16.151Z,15.28
2019-02-26T05:34:45.337Z,15.30
2019-02-26T05:37:13.782Z,15.60
2019-02-26T05:39:40.539Z,16.15
2019-02-26T05:42:08.718Z,15.18
2019-02-26T05:44:35.431Z,15.90
2019-02-26T05:47:02.127Z,16.37
2019-02-26T05:49:28.827Z,15.23
2019-02-26T05:51:58.680Z,14.07
2019-02-26T05:54:25.133Z,15.95
2019-02-26T05:56:51.936Z,15.53
2019-02-26T05:59:21.644Z,14.90
2019-02-26T06:01:49.463Z,15.05
2019-02-26T06:04:19.542Z,15.00
2019-02-26T06:06:44.655Z,14.58
2019-02-26T06:09:11.355Z,14.73
2019-02-26T06:11:39.994Z,15.08
2019-02-26T06:14:09.657Z,15.35
2019-02-26T06:16:35.279Z,15.05
2019-02-26T06:19:01.984Z,16.60
2019-02-26T06:21:28.691Z,15.85
2019-02-26T06:23:55.382Z,14.75
2019-02-26T06:26:22.228Z,16.12
2019-02-26T06:28:52.733Z,15.10
2019-02-26T06:31:22.052Z,15.30
2019-02-26T06:33:50.505Z,15.55
2019-02-26T06:36:18.608Z,16.60
2019-02-26T06:38:49.334Z,16.87
2019-02-26T06:41:15.021Z,16.05
2019-02-26T06:43:45.020Z,16.07
2019-02-26T06:46:12.309Z,17.35
2019-02-26T06:48:38.948Z,16.65
2019-02-26T06:51:07.162Z,17.02
2019-02-26T06:53:33.964Z,16.15
2019-02-26T06:56:01.208Z,16.48
2019-02-26T06:58:28.186Z,17.17
2019-02-26T07:00:56.669Z,16.80
2019-02-26T07:03:24.784Z,16.82
2019-02-26T07:05:51.784Z,17.25
2019-02-26T07:08:19.049Z,18.05
2019-02-26T07:10:47.193Z,18.00
2019-02-26T07:13:14.199Z,17.70
2019-02-26T07:15:42.942Z,17.25
2019-02-26T07:18:11.938Z,17.82
2019-02-26T07:20:39.964Z,17.75
2019-02-26T07:23:08.796Z,17.82
2019-02-26T07:25:37.010Z,18.40
2019-02-26T07:28:04.304Z,17.15
2019-02-26T07:30:32.638Z,18.50
2019-02-26T07:32:59.835Z,17.82
2019-02-26T07:35:28.774Z,18.05
2019-02-26T07:37:56.740Z,18.25
2019-02-26T07:40:23.995Z,18.17
2019-02-26T07:42:50.712Z,18.25
2019-02-26T07:45:19.751Z,17.85
2019-02-26T07:47:46.126Z,17.85
2019-02-26T07:50:14.599Z,16.35
2019-02-26T07:52:42.156Z,18.45
2019-02-26T07:55:11.836Z,17.95
2019-02-26T07:57:40.336Z,18.67
2019-02-26T08:00:09.251Z,19.20
2019-02-26T08:02:37.282Z,18.65
2019-02-26T08:05:05.663Z,18.73
2019-02-26T08:07:32.381Z,18.37
2019-02-26T08:09:59.098Z,18.25
2019-02-26T08:12:25.893Z,16.77
2019-02-26T08:14:52.619Z,16.37
2019-02-26T08:17:19.319Z,17.07
2019-02-26T08:19:48.755Z,16.47
2019-02-26T08:22:15.009Z,16.10
2019-02-26T08:24:41.759Z,15.90
2019-02-26T08:27:09.388Z,15.93
2019-02-26T08:29:37.079Z,17.07
2019-02-26T08:32:04.507Z,15.87
2019-02-26T08:34:31.415Z,16.47
2019-02-26T08:36:58.224Z,16.30
2019-02-26T08:39:24.931Z,15.77
2019-02-26T08:42:03.334Z,14.80
2019-02-26T08:44:30.026Z,14.53
2019-02-26T08:46:56.739Z,15.80
2019-02-26T08:49:23.437Z,15.10
2019-02-26T08:51:50.143Z,15.00
2019-02-26T08:54:20.967Z,14.27
2019-02-26T08:56:45.463Z,14.00
2019-02-26T08:59:12.155Z,14.93
2019-02-26T09:01:38.871Z,14.17
2019-02-26T09:04:05.701Z,14.20
2019-02-26T09:06:32.412Z,14.47
2019-02-26T09:09:00.191Z,13.40
2019-02-26T09:11:28.793Z,14.07
2019-02-26T09:13:59.362Z,14.40
2019-02-26T09:16:27.655Z,13.57
2019-02-26T09:18:53.543Z,14.97
2019-02-26T09:21:22.389Z,14.23
2019-02-26T09:23:49.914Z,13.57
2019-02-26T09:26:17.588Z,13.60
2019-02-26T09:28:45.687Z,13.90
2019-02-26T09:31:14.184Z,13.43
2019-02-26T09:33:43.610Z,13.73
2019-02-26T09:36:12.648Z,14.50
2019-02-26T09:38:39.284Z,14.47
2019-02-26T09:41:06.824Z,13.93
2019-02-26T09:43:33.519Z,14.33
2019-02-26T09:46:00.340Z,13.83
2019-02-26T09:48:27.053Z,14.23
2019-02-26T09:50:53.745Z,14.10
2019-02-26T09:53:20.447Z,14.70
2019-02-26T09:55:47.157Z,14.63
2019-02-26T09:58:15.852Z,13.90
2019-02-26T10:00:43.145Z,14.37
2019-02-26T10:03:13.198Z,13.00
2019-02-26T10:05:40.506Z,14.63
2019-02-26T10:08:07.191Z,14.23
2019-02-26T10:10:36.923Z,13.60
2019-02-26T10:13:04.756Z,13.17
2019-02-26T10:15:32.374Z,13.70
2019-02-26T10:18:03.497Z,13.93
2019-02-26T10:20:31.690Z,12.50
2019-02-26T10:23:00.678Z,13.37
2019-02-26T10:25:31.071Z,12.63
2019-02-26T10:27:55.049Z,11.90
2019-02-26T10:30:24.589Z,12.47
2019-02-26T10:32:51.470Z,12.63
2019-02-26T10:35:19.469Z,13.10
2019-02-26T10:37:53.432Z,11.57
2019-02-26T10:40:20.615Z,12.43
2019-02-26T10:42:47.342Z,12.80
2019-02-26T10:45:15.655Z,11.20
2019-02-26T10:47:42.476Z,10.80
2019-02-26T10:50:13.036Z,10.80
2019-02-26T10:52:40.255Z,11.60
2019-02-26T10:55:07.292Z,10.43
2019-02-26T10:57:36.070Z,11.73
2019-02-26T11:00:08.371Z,11.27
2019-02-26T11:02:34.809Z,11.17
2019-02-26T11:05:01.624Z,10.67
2019-02-26T11:07:29.263Z,9.50
2019-02-26T11:09:58.842Z,8.60
2019-02-26T11:12:27.911Z,10.07
2019-02-26T11:14:56.186Z,10.10
2019-02-26T11:17:23.584Z,11.53
2019-02-26T11:19:53.011Z,10.00
2019-02-26T11:22:21.360Z,9.87
2019-02-26T11:24:50.694Z,9.97
2019-02-26T11:27:17.508Z,10.10
2019-02-26T11:29:44.202Z,8.33
2019-02-26T11:32:13.481Z,7.93
2019-02-26T11:34:39.839Z,7.90
2019-02-26T11:37:08.866Z,8.70
2019-02-26T11:39:35.165Z,8.17
2019-02-26T11:42:01.879Z,9.30
2019-02-26T11:44:28.579Z,8.63
2019-02-26T11:46:56.472Z,7.83
2019-02-26T11:49:23.403Z,8.43
2019-02-26T11:51:50.099Z,7.67
2019-02-26T11:54:17.716Z,8.53
2019-02-26T11:56:46.752Z,8.87
2019-02-26T11:59:14.856Z,8.20
2019-02-26T12:01:42.155Z,8.03
2019-02-26T12:04:11.360Z,8.17
2019-02-26T12:06:37.723Z,7.80
2019-02-26T12:09:08.238Z,8.53
2019-02-26T12:11:34.375Z,8.33
2019-02-26T12:14:01.100Z,8.63
2019-02-26T12:16:28.565Z,8.07
2019-02-26T12:18:55.444Z,8.23
2019-02-26T12:21:22.135Z,8.27
2019-02-26T12:23:48.844Z,7.93
2019-02-26T12:26:17.283Z,8.10
2019-02-26T12:28:44.163Z,7.70
2019-02-26T12:31:12.832Z,7.23
2019-02-26T12:33:39.480Z,7.70
2019-02-26T12:36:07.556Z,7.17
2019-02-26T12:38:36.701Z,7.30
2019-02-26T12:41:05.729Z,6.63
2019-02-26T12:43:33.237Z,3.97
2019-02-26T12:46:01.398Z,3.20
2019-02-26T12:48:29.536Z,4.10
2019-02-26T12:50:58.480Z,4.03
2019-02-26T12:53:25.395Z,4.83
2019-02-26T12:55:54.300Z,4.80
2019-02-26T12:58:23.699Z,4.07
2019-02-26T13:00:49.527Z,4.37
2019-02-26T13:03:19.644Z,4.90
2019-02-26T13:05:45.498Z,4.70
2019-02-26T13:08:17.216Z,4.03
2019-02-26T13:10:46.643Z,4.60
2019-02-26T13:13:10.952Z,4.80
2019-02-26T13:15:38.127Z,5.50
2019-02-26T13:18:04.851Z,5.40
2019-02-26T13:20:31.567Z,5.03
2019-02-26T13:23:16.276Z,5.23
2019-02-26T13:25:27.131Z,5.30
2019-02-26T13:27:53.901Z,5.57
2019-02-26T13:30:21.771Z,5.70
2019-02-26T13:32:59.940Z,5.53
2019-02-26T13:35:17.470Z,4.87
2019-02-26T13:37:44.911Z,5.10
2019-02-26T13:40:13.587Z,5.30
2019-02-26T13:42:40.387Z,5.13
2019-02-26T13:45:09.173Z,5.30
2019-02-26T13:47:35.977Z,4.80
2019-02-26T13:50:04.651Z,4.37
2019-02-26T13:52:31.447Z,4.33
2019-02-26T13:54:58.146Z,3.73
2019-02-26T13:57:24.851Z,3.47
2019-02-26T13:59:51.560Z,3.47
2019-02-26T14:02:18.267Z,3.60
2019-02-26T14:04:45.014Z,2.80
2019-02-26T14:07:11.708Z,2.80
2019-02-26T14:09:38.513Z,2.77
2019-02-26T14:12:05.228Z,2.60
2019-02-26T14:14:31.935Z,2.93
2019-02-26T14:16:58.632Z,2.40
2019-02-26T14:19:25.444Z,2.20
2019-02-26T14:21:52.492Z,2.60
2019-02-26T14:24:19.196Z,2.80
2019-02-26T14:26:45.908Z,2.27
2019-02-26T14:29:12.623Z,2.10
2019-02-26T14:31:39.333Z,2.43
2019-02-26T14:34:06.023Z,2.40
2019-02-26T14:36:33.223Z,2.40
2019-02-26T14:39:00.048Z,3.00
2019-02-26T14:41:26.948Z,2.70
2019-02-26T14:43:53.649Z,3.03
2019-02-26T14:46:20.343Z,3.50
2019-02-26T14:48:47.202Z,3.60
2019-02-26T14:51:13.979Z,4.40
2019-02-26T14:53:40.679Z,4.40
2019-02-26T14:56:07.479Z,4.60
2019-02-26T14:58:34.199Z,5.50
2019-02-26T15:01:00.899Z,5.30
2019-02-26T15:03:27.595Z,6.30
2019-02-26T15:05:54.639Z,6.30
2019-02-26T15:08:21.735Z,7.10
2019-02-26T15:10:48.459Z,6.07
2019-02-26T15:13:15.183Z,6.60
2019-02-26T15:15:42.092Z,7.07
2019-02-26T15:18:09.104Z,6.60
2019-02-26T15:20:35.824Z,6.67
2019-02-26T15:23:03.209Z,7.00
2019-02-26T15:25:30.021Z,7.03
2019-02-26T15:28:04.554Z,7.27
2019-02-26T15:30:26.397Z,7.50
2019-02-26T15:32:53.200Z,8.30
2019-02-26T15:35:20.007Z,8.23
2019-02-26T15:37:46.822Z,7.80
2019-02-26T15:40:13.731Z,8.33
2019-02-26T15:42:41.658Z,8.47
2019-02-26T15:45:11.940Z,7.80
2019-02-26T15:47:38.636Z,8.30
2019-02-26T15:50:08.950Z,8.60
2019-02-26T15:52:35.916Z,8.97
2019-02-26T15:55:02.911Z,8.70
2019-02-26T15:57:31.068Z,8.27
2019-02-26T15:59:58.247Z,9.03
2019-02-26T16:02:25.955Z,8.43
2019-02-26T16:04:53.959Z,8.20
2019-02-26T16:07:20.655Z,8.70
2019-02-26T16:09:47.384Z,8.20
2019-02-26T16:12:14.091Z,8.57
2019-02-26T16:14:40.806Z,8.70
2019-02-26T16:17:07.703Z,8.63
2019-02-26T16:19:34.416Z,7.40
2019-02-26T16:22:01.505Z,7.77
2019-02-26T16:24:28.309Z,7.57
2019-02-26T16:26:55.071Z,7.63
2019-02-26T16:29:21.898Z,7.97
2019-02-26T16:31:48.616Z,7.83
2019-02-26T16:34:17.443Z,7.73
2019-02-26T16:36:43.925Z,7.53
2019-02-26T16:39:10.623Z,7.07
2019-02-26T16:41:38.411Z,7.83
2019-02-26T16:44:06.169Z,7.63
2019-02-26T16:46:32.875Z,7.80
2019-02-26T16:48:59.691Z,7.87
2019-02-26T16:51:26.511Z,7.40
2019-02-26T16:53:53.199Z,6.87
2019-02-26T16:56:21.853Z,7.30
2019-02-26T16:58:48.523Z,7.30
2019-02-26T17:01:15.327Z,7.10
2019-02-26T17:03:42.034Z,6.80
2019-02-26T17:06:09.183Z,7.10
2019-02-26T17:08:36.009Z,6.07
2019-02-26T17:11:02.917Z,7.27
2019-02-26T17:13:29.636Z,6.80
2019-02-26T17:15:56.871Z,6.77
2019-02-26T17:18:25.061Z,6.60
2019-02-26T17:20:52.010Z,6.73
2019-02-26T17:23:18.727Z,6.60
2019-02-26T17:25:45.447Z,6.20
2019-02-26T17:28:12.872Z,6.43
2019-02-26T17:30:39.859Z,6.80
2019-02-26T17:33:06.548Z,6.70
2019-02-26T17:35:33.256Z,6.60
2019-02-26T17:37:59.980Z,7.00
2019-02-26T17:40:26.686Z,6.57
2019-02-26T17:42:54.367Z,6.60
2019-02-26T17:45:21.426Z,7.30
2019-02-26T17:47:48.283Z,7.43
2019-02-26T17:50:17.811Z,7.80
2019-02-26T17:52:44.727Z,7.27
2019-02-26T17:55:11.617Z,6.97
2019-02-26T17:57:38.725Z,9.73
2019-02-26T18:00:08.149Z,7.87
2019-02-26T18:02:34.955Z,7.00
2019-02-26T18:05:01.884Z,6.77
2019-02-26T18:07:28.794Z,7.40
2019-02-26T18:09:55.492Z,7.47
2019-02-26T18:12:22.207Z,7.57
2019-02-26T18:14:48.900Z,6.80
2019-02-26T18:17:15.615Z,7.37
2019-02-26T18:19:42.326Z,7.67
2019-02-26T18:22:09.029Z,7.10
2019-02-26T18:24:35.728Z,7.67
2019-02-26T18:27:02.649Z,7.63
2019-02-26T18:29:29.367Z,7.60
2019-02-26T18:31:56.483Z,7.27
2019-02-26T18:34:23.167Z,7.63
2019-02-26T18:36:49.867Z,7.27
2019-02-26T18:39:16.587Z,7.60
2019-02-26T18:41:50.520Z,7.87
2019-02-26T18:44:11.901Z,8.13
2019-02-26T18:46:38.608Z,7.13
2019-02-26T18:49:05.322Z,7.83
2019-02-26T18:51:33.687Z,7.37
2019-02-26T18:54:00.727Z,7.90
2019-02-26T18:56:27.419Z,7.43
2019-02-26T18:58:54.130Z,8.40
2019-02-26T19:01:20.837Z,7.93
2019-02-26T19:03:47.570Z,8.30
2019-02-26T19:06:14.291Z,9.63
2019-02-26T19:08:41.027Z,9.47
2019-02-26T19:11:07.956Z,9.70
2019-02-26T19:13:35.615Z,9.73
2019-02-26T19:16:03.899Z,10.20
2019-02-26T19:18:30.613Z,9.43
2019-02-26T19:20:57.411Z,10.17
2019-02-26T19:23:24.126Z,9.90
2019-02-26T19:25:50.934Z,10.03
2019-02-26T19:28:17.636Z,10.90
2019-02-26T19:30:44.334Z,10.40
2019-02-26T19:33:11.051Z,10.17
2019-02-26T19:35:40.436Z,10.40
2019-02-26T19:38:06.371Z,10.83
2019-02-26T19:40:38.703Z,12.57
2019-02-26T19:43:04.480Z,11.60
2019-02-26T19:45:32.869Z,12.80
2019-02-26T19:47:59.804Z,11.90
2019-02-26T19:50:26.667Z,12.33
2019-02-26T19:52:56.997Z,11.80
2019-02-26T19:55:24.392Z,11.47
2019-02-26T19:57:51.120Z,11.47
2019-02-26T20:00:20.012Z,11.53
2019-02-26T20:02:46.531Z,10.37
2019-02-26T20:05:13.354Z,10.60
2019-02-26T20:07:40.244Z,10.73
2019-02-26T20:10:07.921Z,11.00
2019-02-26T20:12:34.619Z,11.63
2019-02-26T20:15:01.352Z,11.97
2019-02-26T20:17:28.051Z,11.10
2019-02-26T20:19:54.793Z,11.73
2019-02-26T20:22:21.487Z,11.63
2019-02-26T20:24:48.191Z,11.47
2019-02-26T20:27:15.296Z,12.10
2019-02-26T20:29:42.105Z,11.13
2019-02-26T20:32:08.995Z,12.80
2019-02-26T20:34:35.703Z,11.93
2019-02-26T20:37:02.506Z,11.20
2019-02-26T20:39:29.191Z,12.70
2019-02-26T20:41:56.217Z,12.27
2019-02-26T20:44:23.205Z,12.47
2019-02-26T20:46:50.407Z,12.47
2019-02-26T20:49:17.111Z,13.10
2019-02-26T20:51:44.752Z,12.73
2019-02-26T20:54:12.376Z,13.47
2019-02-26T20:56:39.067Z,12.67
2019-02-26T20:59:05.769Z,13.37
2019-02-26T21:01:33.181Z,12.67
2019-02-26T21:04:00.367Z,13.90
2019-02-26T21:06:27.072Z,12.60
2019-02-26T21:08:53.781Z,14.23
2019-02-26T21:11:23.246Z,13.77
2019-02-26T21:13:49.116Z,13.33
2019-02-26T21:16:16.155Z,14.00
2019-02-26T21:18:42.851Z,12.80
2019-02-26T21:21:11.787Z,13.70
2019-02-26T21:23:38.395Z,14.50
2019-02-26T21:26:05.188Z,13.77
2019-02-26T21:28:33.716Z,15.27
2019-02-26T21:31:01.232Z,14.37
2019-02-26T21:33:30.594Z,14.40
2019-02-26T21:35:56.547Z,15.53
2019-02-26T21:38:23.252Z,15.93
2019-02-26T21:40:52.024Z,16.50
2019-02-26T21:43:18.575Z,15.30
2019-02-26T21:45:49.165Z,15.13
2019-02-26T21:48:13.921Z,16.37
2019-02-26T21:50:40.615Z,15.40
2019-02-26T21:53:07.324Z,16.23
2019-02-26T21:55:43.895Z,18.43
2019-02-26T21:58:02.980Z,27.13
2019-02-26T22:00:29.704Z,24.93
2019-02-26T22:02:56.403Z,22.47
2019-02-26T22:05:23.216Z,18.50
2019-02-26T22:07:52.397Z,20.53
2019-02-26T22:10:18.752Z,22.90
2019-02-26T22:12:45.447Z,22.93
2019-02-26T22:15:12.819Z,23.10
2019-02-26T22:17:39.620Z,20.33
2019-02-26T22:20:09.236Z,19.27
2019-02-26T22:22:36.167Z,22.80
2019-02-26T22:25:09.750Z,23.73
2019-02-26T22:27:33.714Z,27.53
2019-02-26T22:30:00.608Z,24.23
2019-02-26T22:32:27.307Z,23.07
2019-02-26T22:34:54.208Z,20.87
2019-02-26T22:37:21.312Z,23.37
2019-02-26T22:39:48.023Z,19.57
2019-02-26T22:42:14.716Z,17.87
2019-02-26T22:44:41.431Z,18.10
2019-02-26T22:47:08.130Z,17.63
2019-02-26T22:49:34.919Z,18.20
2019-02-26T22:52:01.624Z,17.13
2019-02-26T22:54:28.313Z,17.77
2019-02-26T22:56:56.913Z,17.83
2019-02-26T22:59:43.625Z,16.73
2019-02-26T23:02:11.235Z,18.47
2019-02-26T23:04:38.036Z,18.27
2019-02-26T23:07:05.463Z,17.80
2019-02-26T23:09:32.859Z,19.30
2019-02-26T23:11:59.849Z,17.40
2019-02-26T23:14:27.667Z,18.63
2019-02-26T23:16:54.380Z,18.30
2019-02-26T23:19:22.187Z,18.93
2019-02-26T23:21:50.067Z,17.93
2019-02-26T23:24:17.411Z,18.03
2019-02-26T23:26:44.312Z,18.33
2019-02-26T23:29:11.211Z,17.63
2019-02-26T23:31:37.917Z,18.33
2019-02-26T23:34:04.809Z,18.03
2019-02-26T23:36:31.589Z,17.93
2019-02-26T23:38:58.303Z,18.00
2019-02-26T23:41:25.004Z,18.07
2019-02-26T23:43:51.939Z,18.80
2019-02-26T23:46:18.625Z,17.77
2019-02-26T23:48:45.336Z,18.53
2019-02-26T23:51:12.039Z,17.63
2019-02-26T23:53:38.740Z,17.37
2019-02-26T23:56:05.446Z,18.00
2019-02-26T23:58:32.240Z,18.30
